Weather at Taber (Health Centre) Heliport

Public forecast

Using degrees Celsius for public forecast. Weather courtesy of forecast.io.

Closest aviation weather report (METAR) to Taber (Health Centre) Heliport

Closest report is Lethbridge County Airport, 26.3 nm (48.8 km) WSW.

2024/07/15 14:00 (retrieved 41 minutes ago)

CYQL 151400Z 16005KT 30SM SCT110 16/13 A3000 RMK AC3 SLP154 DENSITY ALT 3800FT

Closest aviation forecast (TAF) to Taber (Health Centre) Heliport

Closest forecast is Lethbridge County Airport, 26.3 nm (48.8 km) WSW.

2024/07/15 13:09 Ammendment (retrieved 2 hours ago)

TAF AMD CYQL 151307Z 1513/1524 18005KT P6SM SCT100 BECMG 1519/1521 02010KT RMK NXT FCST BY 151800Z